sensor_id;sensor_type;location;lat;lon;timestamp;P1;durP1;ratioP1;P2;durP2;ratioP2
3523;SDS011;1776;53.330;11.498;2023-07-31T00:02:13;5.37;;;1.90;;
3523;SDS011;1776;53.330;11.498;2023-07-31T00:04:38;1.83;;;1.30;;
3523;SDS011;1776;53.330;11.498;2023-07-31T00:07:03;2.50;;;1.67;;
3523;SDS011;1776;53.330;11.498;2023-07-31T00:09:31;2.93;;;1.83;;
3523;SDS011;1776;53.330;11.498;2023-07-31T00:11:56;6.60;;;2.13;;
3523;SDS011;1776;53.330;11.498;2023-07-31T00:14:21;2.77;;;1.57;;
3523;SDS011;1776;53.330;11.498;2023-07-31T00:16:47;5.03;;;1.37;;
3523;SDS011;1776;53.330;11.498;2023-07-31T00:19:12;2.40;;;1.50;;
3523;SDS011;1776;53.330;11.498;2023-07-31T00:21:37;4.30;;;1.70;;
3523;SDS011;1776;53.330;11.498;2023-07-31T00:24:02;2.10;;;1.63;;
3523;SDS011;1776;53.330;11.498;2023-07-31T00:26:28;1.93;;;1.50;;
3523;SDS011;1776;53.330;11.498;2023-07-31T00:28:53;3.80;;;2.07;;
3523;SDS011;1776;53.330;11.498;2023-07-31T00:31:18;4.63;;;2.23;;
3523;SDS011;1776;53.330;11.498;2023-07-31T00:33:44;5.00;;;1.83;;
3523;SDS011;1776;53.330;11.498;2023-07-31T00:36:09;5.93;;;1.67;;
3523;SDS011;1776;53.330;11.498;2023-07-31T00:38:34;2.40;;;1.90;;
3523;SDS011;1776;53.330;11.498;2023-07-31T00:40:59;5.73;;;2.10;;
3523;SDS011;1776;53.330;11.498;2023-07-31T00:43:25;6.57;;;1.73;;
3523;SDS011;1776;53.330;11.498;2023-07-31T00:45:50;5.57;;;1.97;;
3523;SDS011;1776;53.330;11.498;2023-07-31T00:48:15;3.00;;;1.90;;
3523;SDS011;1776;53.330;11.498;2023-07-31T00:50:40;3.43;;;2.20;;
3523;SDS011;1776;53.330;11.498;2023-07-31T00:53:06;6.43;;;1.33;;
3523;SDS011;1776;53.330;11.498;2023-07-31T00:55:31;3.07;;;2.27;;
3523;SDS011;1776;53.330;11.498;2023-07-31T00:57:57;5.17;;;1.90;;
3523;SDS011;1776;53.330;11.498;2023-07-31T01:00:22;3.03;;;2.07;;
3523;SDS011;1776;53.330;11.498;2023-07-31T01:02:48;5.57;;;1.93;;
3523;SDS011;1776;53.330;11.498;2023-07-31T01:05:15;4.83;;;2.17;;
3523;SDS011;1776;53.330;11.498;2023-07-31T01:07:52;7.73;;;3.10;;
3523;SDS011;1776;53.330;11.498;2023-07-31T01:10:27;2.97;;;1.80;;
3523;SDS011;1776;53.330;11.498;2023-07-31T01:13:02;6.33;;;1.77;;
3523;SDS011;1776;53.330;11.498;2023-07-31T01:15:28;3.77;;;2.07;;
3523;SDS011;1776;53.330;11.498;2023-07-31T01:17:53;3.60;;;1.90;;
3523;SDS011;1776;53.330;11.498;2023-07-31T01:20:26;3.03;;;1.80;;
3523;SDS011;1776;53.330;11.498;2023-07-31T01:26:19;4.20;;;3.10;;
3523;SDS011;1776;53.330;11.498;2023-07-31T01:31:26;3.00;;;2.50;;
3523;SDS011;1776;53.330;11.498;2023-07-31T01:33:56;4.80;;;2.67;;
3523;SDS011;1776;53.330;11.498;2023-07-31T01:36:23;5.47;;;2.73;;
3523;SDS011;1776;53.330;11.498;2023-07-31T01:38:48;4.30;;;2.30;;
3523;SDS011;1776;53.330;11.498;2023-07-31T01:41:16;4.00;;;2.53;;
3523;SDS011;1776;53.330;11.498;2023-07-31T01:43:47;3.03;;;2.00;;
3523;SDS011;1776;53.330;11.498;2023-07-31T01:46:13;5.70;;;2.73;;
3523;SDS011;1776;53.330;11.498;2023-07-31T01:48:38;3.40;;;2.70;;
3523;SDS011;1776;53.330;11.498;2023-07-31T01:51:03;7.10;;;2.80;;
3523;SDS011;1776;53.330;11.498;2023-07-31T01:53:29;3.77;;;2.17;;
3523;SDS011;1776;53.330;11.498;2023-07-31T01:55:56;4.53;;;2.90;;
3523;SDS011;1776;53.330;11.498;2023-07-31T01:58:21;4.03;;;2.37;;
3523;SDS011;1776;53.330;11.498;2023-07-31T02:00:46;8.27;;;2.80;;
3523;SDS011;1776;53.330;11.498;2023-07-31T02:03:12;4.13;;;3.10;;
3523;SDS011;1776;53.330;11.498;2023-07-31T02:05:43;5.33;;;3.27;;
3523;SDS011;1776;53.330;11.498;2023-07-31T02:08:09;4.87;;;2.43;;
3523;SDS011;1776;53.330;11.498;2023-07-31T02:10:36;6.07;;;3.00;;
3523;SDS011;1776;53.330;11.498;2023-07-31T02:13:01;7.23;;;2.50;;
3523;SDS011;1776;53.330;11.498;2023-07-31T02:15:28;8.27;;;2.97;;
3523;SDS011;1776;53.330;11.498;2023-07-31T02:17:54;4.93;;;2.40;;
3523;SDS011;1776;53.330;11.498;2023-07-31T02:20:20;5.80;;;3.07;;
3523;SDS011;1776;53.330;11.498;2023-07-31T02:22:45;6.50;;;3.30;;
3523;SDS011;1776;53.330;11.498;2023-07-31T02:25:10;5.30;;;2.63;;
3523;SDS011;1776;53.330;11.498;2023-07-31T02:27:35;8.90;;;3.30;;
3523;SDS011;1776;53.330;11.498;2023-07-31T02:30:01;5.27;;;2.70;;
3523;SDS011;1776;53.330;11.498;2023-07-31T02:32:26;8.60;;;2.40;;
3523;SDS011;1776;53.330;11.498;2023-07-31T02:34:51;3.20;;;2.50;;
3523;SDS011;1776;53.330;11.498;2023-07-31T02:37:16;3.93;;;2.30;;
3523;SDS011;1776;53.330;11.498;2023-07-31T02:39:42;3.63;;;2.43;;
3523;SDS011;1776;53.330;11.498;2023-07-31T02:42:07;6.63;;;2.23;;
3523;SDS011;1776;53.330;11.498;2023-07-31T02:44:33;7.80;;;3.23;;
3523;SDS011;1776;53.330;11.498;2023-07-31T02:46:58;8.30;;;2.73;;
3523;SDS011;1776;53.330;11.498;2023-07-31T02:49:23;6.07;;;2.33;;
3523;SDS011;1776;53.330;11.498;2023-07-31T02:51:48;5.07;;;2.23;;
3523;SDS011;1776;53.330;11.498;2023-07-31T02:54:14;4.80;;;2.43;;
3523;SDS011;1776;53.330;11.498;2023-07-31T02:56:39;5.03;;;2.27;;
3523;SDS011;1776;53.330;11.498;2023-07-31T02:59:04;4.57;;;3.03;;
3523;SDS011;1776;53.330;11.498;2023-07-31T03:01:29;13.63;;;3.10;;
3523;SDS011;1776;53.330;11.498;2023-07-31T03:03:55;4.40;;;2.73;;
3523;SDS011;1776;53.330;11.498;2023-07-31T03:06:21;3.93;;;3.00;;
3523;SDS011;1776;53.330;11.498;2023-07-31T03:08:46;4.97;;;2.23;;
3523;SDS011;1776;53.330;11.498;2023-07-31T03:11:11;4.77;;;2.70;;
3523;SDS011;1776;53.330;11.498;2023-07-31T03:13:37;4.43;;;2.90;;
3523;SDS011;1776;53.330;11.498;2023-07-31T03:16:02;7.50;;;2.60;;
3523;SDS011;1776;53.330;11.498;2023-07-31T03:18:27;5.23;;;2.83;;
3523;SDS011;1776;53.330;11.498;2023-07-31T03:20:52;5.07;;;3.47;;
3523;SDS011;1776;53.330;11.498;2023-07-31T03:23:18;8.30;;;3.27;;
3523;SDS011;1776;53.330;11.498;2023-07-31T03:26:06;6.33;;;2.90;;
3523;SDS011;1776;53.330;11.498;2023-07-31T03:28:31;7.70;;;3.70;;
3523;SDS011;1776;53.330;11.498;2023-07-31T03:30:56;5.23;;;2.90;;
3523;SDS011;1776;53.330;11.498;2023-07-31T03:33:22;6.43;;;3.00;;
3523;SDS011;1776;53.330;11.498;2023-07-31T03:35:47;4.80;;;3.07;;
3523;SDS011;1776;53.330;11.498;2023-07-31T03:38:12;9.70;;;3.53;;
3523;SDS011;1776;53.330;11.498;2023-07-31T03:40:38;3.97;;;3.07;;
3523;SDS011;1776;53.330;11.498;2023-07-31T03:43:04;5.60;;;3.00;;
3523;SDS011;1776;53.330;11.498;2023-07-31T03:45:30;5.57;;;3.53;;
3523;SDS011;1776;53.330;11.498;2023-07-31T03:47:55;6.57;;;3.70;;
3523;SDS011;1776;53.330;11.498;2023-07-31T03:50:20;5.67;;;3.33;;
3523;SDS011;1776;53.330;11.498;2023-07-31T03:52:46;10.13;;;3.87;;
3523;SDS011;1776;53.330;11.498;2023-07-31T03:55:11;5.30;;;4.10;;
3523;SDS011;1776;53.330;11.498;2023-07-31T03:57:37;5.53;;;3.37;;
3523;SDS011;1776;53.330;11.498;2023-07-31T04:00:02;5.10;;;4.10;;
3523;SDS011;1776;53.330;11.498;2023-07-31T04:02:28;4.90;;;3.33;;
3523;SDS011;1776;53.330;11.498;2023-07-31T04:04:53;7.50;;;3.90;;
3523;SDS011;1776;53.330;11.498;2023-07-31T04:07:19;5.60;;;4.00;;
3523;SDS011;1776;53.330;11.498;2023-07-31T04:09:44;9.67;;;4.40;;
3523;SDS011;1776;53.330;11.498;2023-07-31T04:12:09;9.20;;;5.00;;
3523;SDS011;1776;53.330;11.498;2023-07-31T04:14:34;6.70;;;4.33;;
3523;SDS011;1776;53.330;11.498;2023-07-31T04:17:00;5.80;;;3.90;;
3523;SDS011;1776;53.330;11.498;2023-07-31T04:19:25;5.87;;;3.97;;
3523;SDS011;1776;53.330;11.498;2023-07-31T04:21:50;4.80;;;4.33;;
3523;SDS011;1776;53.330;11.498;2023-07-31T04:24:15;5.57;;;4.93;;
3523;SDS011;1776;53.330;11.498;2023-07-31T04:26:47;6.53;;;4.27;;
3523;SDS011;1776;53.330;11.498;2023-07-31T04:29:12;5.50;;;3.50;;
3523;SDS011;1776;53.330;11.498;2023-07-31T04:31:37;6.10;;;4.50;;
3523;SDS011;1776;53.330;11.498;2023-07-31T04:34:03;8.13;;;4.57;;
3523;SDS011;1776;53.330;11.498;2023-07-31T04:36:28;5.90;;;3.83;;
3523;SDS011;1776;53.330;11.498;2023-07-31T04:38:53;10.90;;;3.97;;
3523;SDS011;1776;53.330;11.498;2023-07-31T04:41:18;3.37;;;3.07;;
3523;SDS011;1776;53.330;11.498;2023-07-31T04:43:44;5.10;;;3.20;;
3523;SDS011;1776;53.330;11.498;2023-07-31T04:46:09;4.50;;;3.20;;
3523;SDS011;1776;53.330;11.498;2023-07-31T04:48:34;5.20;;;4.10;;
3523;SDS011;1776;53.330;11.498;2023-07-31T04:50:59;3.43;;;3.20;;
3523;SDS011;1776;53.330;11.498;2023-07-31T04:53:25;4.30;;;3.23;;
3523;SDS011;1776;53.330;11.498;2023-07-31T04:55:50;7.07;;;3.73;;
3523;SDS011;1776;53.330;11.498;2023-07-31T04:58:16;3.57;;;3.27;;
3523;SDS011;1776;53.330;11.498;2023-07-31T05:00:41;5.20;;;3.73;;
3523;SDS011;1776;53.330;11.498;2023-07-31T05:03:06;5.63;;;2.77;;
3523;SDS011;1776;53.330;11.498;2023-07-31T05:05:32;5.90;;;3.07;;
3523;SDS011;1776;53.330;11.498;2023-07-31T05:07:57;6.60;;;3.23;;
3523;SDS011;1776;53.330;11.498;2023-07-31T05:10:22;4.47;;;3.20;;
3523;SDS011;1776;53.330;11.498;2023-07-31T05:12:47;4.30;;;3.27;;
3523;SDS011;1776;53.330;11.498;2023-07-31T05:15:13;3.50;;;3.20;;
3523;SDS011;1776;53.330;11.498;2023-07-31T05:17:38;7.30;;;3.50;;
3523;SDS011;1776;53.330;11.498;2023-07-31T05:20:04;10.80;;;3.50;;
3523;SDS011;1776;53.330;11.498;2023-07-31T05:22:29;4.40;;;3.77;;
3523;SDS011;1776;53.330;11.498;2023-07-31T05:24:54;6.40;;;2.80;;
3523;SDS011;1776;53.330;11.498;2023-07-31T05:27:20;3.87;;;3.00;;
3523;SDS011;1776;53.330;11.498;2023-07-31T05:29:45;7.83;;;3.00;;
3523;SDS011;1776;53.330;11.498;2023-07-31T05:32:10;4.87;;;2.90;;
3523;SDS011;1776;53.330;11.498;2023-07-31T05:34:36;4.83;;;2.83;;
3523;SDS011;1776;53.330;11.498;2023-07-31T05:37:02;6.53;;;3.90;;
3523;SDS011;1776;53.330;11.498;2023-07-31T05:39:27;4.80;;;2.83;;
3523;SDS011;1776;53.330;11.498;2023-07-31T05:41:52;4.40;;;2.97;;
3523;SDS011;1776;53.330;11.498;2023-07-31T05:44:17;5.23;;;2.33;;
3523;SDS011;1776;53.330;11.498;2023-07-31T05:46:43;3.40;;;2.87;;
3523;SDS011;1776;53.330;11.498;2023-07-31T05:49:08;3.60;;;3.10;;
3523;SDS011;1776;53.330;11.498;2023-07-31T05:51:33;7.97;;;2.73;;
3523;SDS011;1776;53.330;11.498;2023-07-31T05:53:58;3.77;;;2.93;;
3523;SDS011;1776;53.330;11.498;2023-07-31T05:56:24;3.43;;;2.80;;
3523;SDS011;1776;53.330;11.498;2023-07-31T05:58:49;7.33;;;3.20;;
3523;SDS011;1776;53.330;11.498;2023-07-31T06:01:15;5.87;;;3.20;;
3523;SDS011;1776;53.330;11.498;2023-07-31T06:03:42;4.53;;;2.57;;
3523;SDS011;1776;53.330;11.498;2023-07-31T06:06:07;2.60;;;2.40;;
3523;SDS011;1776;53.330;11.498;2023-07-31T06:08:33;4.17;;;3.10;;
3523;SDS011;1776;53.330;11.498;2023-07-31T06:10:58;4.50;;;2.90;;
3523;SDS011;1776;53.330;11.498;2023-07-31T06:13:23;3.23;;;2.30;;
3523;SDS011;1776;53.330;11.498;2023-07-31T06:15:48;4.50;;;2.70;;
3523;SDS011;1776;53.330;11.498;2023-07-31T06:18:14;4.20;;;2.50;;
3523;SDS011;1776;53.330;11.498;2023-07-31T06:20:39;3.57;;;2.63;;
3523;SDS011;1776;53.330;11.498;2023-07-31T06:23:05;4.73;;;3.37;;
3523;SDS011;1776;53.330;11.498;2023-07-31T06:25:31;4.43;;;2.73;;
3523;SDS011;1776;53.330;11.498;2023-07-31T06:27:56;3.43;;;2.23;;
3523;SDS011;1776;53.330;11.498;2023-07-31T06:30:21;7.60;;;2.73;;
3523;SDS011;1776;53.330;11.498;2023-07-31T06:32:46;4.30;;;3.20;;
3523;SDS011;1776;53.330;11.498;2023-07-31T06:35:12;5.90;;;2.80;;
3523;SDS011;1776;53.330;11.498;2023-07-31T06:37:37;3.93;;;2.43;;
3523;SDS011;1776;53.330;11.498;2023-07-31T06:40:05;7.10;;;3.20;;
3523;SDS011;1776;53.330;11.498;2023-07-31T06:42:32;8.10;;;2.73;;
3523;SDS011;1776;53.330;11.498;2023-07-31T06:44:58;3.63;;;2.37;;
3523;SDS011;1776;53.330;11.498;2023-07-31T06:47:23;4.37;;;3.10;;
3523;SDS011;1776;53.330;11.498;2023-07-31T06:49:48;2.80;;;2.27;;
3523;SDS011;1776;53.330;11.498;2023-07-31T06:52:13;2.77;;;2.47;;
3523;SDS011;1776;53.330;11.498;2023-07-31T06:54:39;4.03;;;2.43;;
3523;SDS011;1776;53.330;11.498;2023-07-31T06:57:04;5.20;;;3.33;;
3523;SDS011;1776;53.330;11.498;2023-07-31T06:59:29;7.20;;;2.60;;
3523;SDS011;1776;53.330;11.498;2023-07-31T07:01:54;3.40;;;2.00;;
3523;SDS011;1776;53.330;11.498;2023-07-31T07:04:20;6.57;;;2.70;;
3523;SDS011;1776;53.330;11.498;2023-07-31T07:06:45;2.57;;;2.00;;
3523;SDS011;1776;53.330;11.498;2023-07-31T07:09:10;4.17;;;2.20;;
3523;SDS011;1776;53.330;11.498;2023-07-31T07:11:35;3.33;;;2.00;;
3523;SDS011;1776;53.330;11.498;2023-07-31T07:14:02;2.73;;;2.40;;
3523;SDS011;1776;53.330;11.498;2023-07-31T07:16:28;3.73;;;2.37;;
3523;SDS011;1776;53.330;11.498;2023-07-31T07:18:53;5.33;;;2.97;;
3523;SDS011;1776;53.330;11.498;2023-07-31T07:21:19;5.20;;;2.47;;
3523;SDS011;1776;53.330;11.498;2023-07-31T07:23:44;3.17;;;2.20;;
3523;SDS011;1776;53.330;11.498;2023-07-31T07:26:10;3.90;;;2.50;;
3523;SDS011;1776;53.330;11.498;2023-07-31T07:28:35;2.63;;;2.07;;
3523;SDS011;1776;53.330;11.498;2023-07-31T07:31:02;2.40;;;2.20;;
3523;SDS011;1776;53.330;11.498;2023-07-31T07:33:27;3.60;;;2.60;;
3523;SDS011;1776;53.330;11.498;2023-07-31T07:35:52;5.60;;;1.97;;
3523;SDS011;1776;53.330;11.498;2023-07-31T07:38:18;4.00;;;2.57;;
3523;SDS011;1776;53.330;11.498;2023-07-31T07:40:44;3.23;;;1.73;;
3523;SDS011;1776;53.330;11.498;2023-07-31T07:43:10;2.13;;;1.93;;
3523;SDS011;1776;53.330;11.498;2023-07-31T07:45:35;2.27;;;1.60;;
3523;SDS011;1776;53.330;11.498;2023-07-31T07:48:00;2.00;;;1.87;;
3523;SDS011;1776;53.330;11.498;2023-07-31T07:50:25;2.33;;;1.73;;
3523;SDS011;1776;53.330;11.498;2023-07-31T07:52:51;2.30;;;1.80;;
3523;SDS011;1776;53.330;11.498;2023-07-31T07:55:16;2.47;;;1.57;;
3523;SDS011;1776;53.330;11.498;2023-07-31T07:57:41;1.97;;;1.20;;
3523;SDS011;1776;53.330;11.498;2023-07-31T08:00:07;4.83;;;1.93;;
3523;SDS011;1776;53.330;11.498;2023-07-31T08:02:35;1.67;;;1.57;;
3523;SDS011;1776;53.330;11.498;2023-07-31T08:05:00;1.50;;;1.33;;
3523;SDS011;1776;53.330;11.498;2023-07-31T08:07:26;1.27;;;1.17;;
3523;SDS011;1776;53.330;11.498;2023-07-31T08:09:51;1.43;;;1.30;;
3523;SDS011;1776;53.330;11.498;2023-07-31T08:12:17;2.83;;;1.50;;
3523;SDS011;1776;53.330;11.498;2023-07-31T08:14:42;2.10;;;1.83;;
3523;SDS011;1776;53.330;11.498;2023-07-31T08:17:07;2.40;;;1.70;;
3523;SDS011;1776;53.330;11.498;2023-07-31T08:19:33;1.60;;;1.37;;
3523;SDS011;1776;53.330;11.498;2023-07-31T08:21:59;2.80;;;1.20;;
3523;SDS011;1776;53.330;11.498;2023-07-31T08:24:24;1.40;;;1.20;;
3523;SDS011;1776;53.330;11.498;2023-07-31T08:26:49;2.77;;;1.70;;
3523;SDS011;1776;53.330;11.498;2023-07-31T08:29:15;1.73;;;1.63;;
3523;SDS011;1776;53.330;11.498;2023-07-31T08:31:40;1.50;;;1.20;;
3523;SDS011;1776;53.330;11.498;2023-07-31T08:34:05;1.30;;;1.20;;
3523;SDS011;1776;53.330;11.498;2023-07-31T08:36:30;1.23;;;1.10;;
3523;SDS011;1776;53.330;11.498;2023-07-31T08:38:56;1.23;;;1.10;;
3523;SDS011;1776;53.330;11.498;2023-07-31T08:41:21;1.30;;;1.13;;
3523;SDS011;1776;53.330;11.498;2023-07-31T08:43:46;1.00;;;0.90;;
3523;SDS011;1776;53.330;11.498;2023-07-31T08:46:14;3.00;;;1.50;;
3523;SDS011;1776;53.330;11.498;2023-07-31T08:48:42;2.93;;;1.27;;
3523;SDS011;1776;53.330;11.498;2023-07-31T08:51:09;2.70;;;1.47;;
3523;SDS011;1776;53.330;11.498;2023-07-31T08:53:34;1.90;;;1.23;;
3523;SDS011;1776;53.330;11.498;2023-07-31T08:56:00;1.50;;;1.40;;
3523;SDS011;1776;53.330;11.498;2023-07-31T08:58:27;1.40;;;1.30;;
3523;SDS011;1776;53.330;11.498;2023-07-31T09:00:57;2.10;;;1.27;;
3523;SDS011;1776;53.330;11.498;2023-07-31T09:03:24;1.70;;;1.40;;
3523;SDS011;1776;53.330;11.498;2023-07-31T09:05:50;2.20;;;1.10;;
3523;SDS011;1776;53.330;11.498;2023-07-31T09:08:19;2.30;;;1.20;;
3523;SDS011;1776;53.330;11.498;2023-07-31T09:10:46;0.80;;;0.80;;
3523;SDS011;1776;53.330;11.498;2023-07-31T09:13:12;0.90;;;0.80;;
3523;SDS011;1776;53.330;11.498;2023-07-31T09:15:38;1.83;;;1.27;;
3523;SDS011;1776;53.330;11.498;2023-07-31T09:18:05;1.70;;;1.00;;
3523;SDS011;1776;53.330;11.498;2023-07-31T09:20:31;1.30;;;0.90;;
3523;SDS011;1776;53.330;11.498;2023-07-31T09:23:04;2.03;;;0.93;;
3523;SDS011;1776;53.330;11.498;2023-07-31T09:25:39;0.67;;;0.60;;
3523;SDS011;1776;53.330;11.498;2023-07-31T09:28:09;1.10;;;0.70;;
3523;SDS011;1776;53.330;11.498;2023-07-31T09:30:45;0.93;;;0.60;;
3523;SDS011;1776;53.330;11.498;2023-07-31T09:33:17;1.17;;;0.80;;
3523;SDS011;1776;53.330;11.498;2023-07-31T09:35:44;1.00;;;0.77;;
3523;SDS011;1776;53.330;11.498;2023-07-31T09:38:10;0.70;;;0.60;;
3523;SDS011;1776;53.330;11.498;2023-07-31T09:40:40;1.00;;;0.70;;
3523;SDS011;1776;53.330;11.498;2023-07-31T09:43:08;1.03;;;0.63;;
3523;SDS011;1776;53.330;11.498;2023-07-31T09:45:38;0.80;;;0.60;;
3523;SDS011;1776;53.330;11.498;2023-07-31T09:50:38;2.50;;;0.80;;
3523;SDS011;1776;53.330;11.498;2023-07-31T09:53:06;1.07;;;0.63;;
3523;SDS011;1776;53.330;11.498;2023-07-31T09:55:32;1.83;;;0.70;;
3523;SDS011;1776;53.330;11.498;2023-07-31T09:57:58;1.00;;;0.70;;
3523;SDS011;1776;53.330;11.498;2023-07-31T10:00:24;0.50;;;0.50;;
3523;SDS011;1776;53.330;11.498;2023-07-31T10:02:52;0.50;;;0.50;;
3523;SDS011;1776;53.330;11.498;2023-07-31T10:05:19;0.60;;;0.50;;
3523;SDS011;1776;53.330;11.498;2023-07-31T10:07:49;0.53;;;0.53;;
3523;SDS011;1776;53.330;11.498;2023-07-31T10:10:18;0.87;;;0.60;;
3523;SDS011;1776;53.330;11.498;2023-07-31T10:12:45;0.60;;;0.60;;
3523;SDS011;1776;53.330;11.498;2023-07-31T10:15:12;0.80;;;0.70;;
3523;SDS011;1776;53.330;11.498;2023-07-31T10:17:40;0.60;;;0.60;;
3523;SDS011;1776;53.330;11.498;2023-07-31T10:20:05;0.60;;;0.57;;
3523;SDS011;1776;53.330;11.498;2023-07-31T10:22:32;1.00;;;0.80;;
3523;SDS011;1776;53.330;11.498;2023-07-31T10:24:58;0.60;;;0.60;;
3523;SDS011;1776;53.330;11.498;2023-07-31T10:27:24;1.10;;;0.60;;
3523;SDS011;1776;53.330;11.498;2023-07-31T10:29:50;1.00;;;0.80;;
3523;SDS011;1776;53.330;11.498;2023-07-31T10:32:18;0.87;;;0.60;;
3523;SDS011;1776;53.330;11.498;2023-07-31T10:34:44;0.90;;;0.90;;
3523;SDS011;1776;53.330;11.498;2023-07-31T10:40:10;1.27;;;0.80;;
3523;SDS011;1776;53.330;11.498;2023-07-31T10:45:33;4.13;;;1.03;;
3523;SDS011;1776;53.330;11.498;2023-07-31T10:48:03;1.20;;;1.10;;
3523;SDS011;1776;53.330;11.498;2023-07-31T10:50:30;2.17;;;1.47;;
3523;SDS011;1776;53.330;11.498;2023-07-31T10:52:58;3.50;;;1.63;;
3523;SDS011;1776;53.330;11.498;2023-07-31T10:55:35;4.40;;;2.63;;
3523;SDS011;1776;53.330;11.498;2023-07-31T10:58:12;7.40;;;3.00;;
3523;SDS011;1776;53.330;11.498;2023-07-31T11:00:39;5.33;;;3.27;;
3523;SDS011;1776;53.330;11.498;2023-07-31T11:03:06;5.27;;;3.57;;
3523;SDS011;1776;53.330;11.498;2023-07-31T11:08:32;10.43;;;3.97;;
3523;SDS011;1776;53.330;11.498;2023-07-31T11:13:27;13.03;;;5.73;;
3523;SDS011;1776;53.330;11.498;2023-07-31T11:16:20;12.30;;;5.50;;
3523;SDS011;1776;53.330;11.498;2023-07-31T11:18:47;9.60;;;5.40;;
3523;SDS011;1776;53.330;11.498;2023-07-31T11:21:18;9.53;;;6.13;;
3523;SDS011;1776;53.330;11.498;2023-07-31T11:23:48;11.63;;;5.63;;
3523;SDS011;1776;53.330;11.498;2023-07-31T11:26:14;11.47;;;6.30;;
3523;SDS011;1776;53.330;11.498;2023-07-31T11:28:41;8.43;;;5.70;;
3523;SDS011;1776;53.330;11.498;2023-07-31T11:31:08;7.90;;;5.37;;
3523;SDS011;1776;53.330;11.498;2023-07-31T11:33:35;11.07;;;6.43;;
3523;SDS011;1776;53.330;11.498;2023-07-31T11:36:01;8.43;;;5.73;;
3523;SDS011;1776;53.330;11.498;2023-07-31T11:38:27;12.60;;;5.47;;
3523;SDS011;1776;53.330;11.498;2023-07-31T11:40:55;10.57;;;6.20;;
3523;SDS011;1776;53.330;11.498;2023-07-31T11:43:22;8.60;;;5.70;;
3523;SDS011;1776;53.330;11.498;2023-07-31T11:45:49;8.23;;;5.47;;
3523;SDS011;1776;53.330;11.498;2023-07-31T11:48:25;18.67;;;6.27;;
3523;SDS011;1776;53.330;11.498;2023-07-31T11:50:52;8.57;;;6.00;;
3523;SDS011;1776;53.330;11.498;2023-07-31T11:53:27;12.30;;;6.87;;
3523;SDS011;1776;53.330;11.498;2023-07-31T11:56:15;9.30;;;5.80;;
3523;SDS011;1776;53.330;11.498;2023-07-31T11:58:42;8.70;;;5.13;;
3523;SDS011;1776;53.330;11.498;2023-07-31T12:01:10;13.93;;;6.73;;
3523;SDS011;1776;53.330;11.498;2023-07-31T12:03:36;9.30;;;6.43;;
3523;SDS011;1776;53.330;11.498;2023-07-31T12:06:02;8.20;;;4.77;;
3523;SDS011;1776;53.330;11.498;2023-07-31T12:08:27;8.07;;;5.20;;
3523;SDS011;1776;53.330;11.498;2023-07-31T12:10:53;5.47;;;4.90;;
3523;SDS011;1776;53.330;11.498;2023-07-31T12:13:20;6.53;;;5.00;;
3523;SDS011;1776;53.330;11.498;2023-07-31T12:15:54;5.30;;;4.30;;
3523;SDS011;1776;53.330;11.498;2023-07-31T12:18:22;8.10;;;5.87;;
3523;SDS011;1776;53.330;11.498;2023-07-31T12:20:48;9.30;;;5.70;;
3523;SDS011;1776;53.330;11.498;2023-07-31T12:23:22;10.63;;;5.43;;
3523;SDS011;1776;53.330;11.498;2023-07-31T12:26:12;7.63;;;4.50;;
3523;SDS011;1776;53.330;11.498;2023-07-31T12:28:44;10.90;;;5.50;;
3523;SDS011;1776;53.330;11.498;2023-07-31T12:31:12;8.03;;;4.60;;
3523;SDS011;1776;53.330;11.498;2023-07-31T12:33:39;5.70;;;4.40;;
3523;SDS011;1776;53.330;11.498;2023-07-31T12:36:09;7.43;;;4.10;;
3523;SDS011;1776;53.330;11.498;2023-07-31T12:38:35;4.03;;;3.40;;
3523;SDS011;1776;53.330;11.498;2023-07-31T12:41:01;6.63;;;3.90;;
3523;SDS011;1776;53.330;11.498;2023-07-31T12:43:26;5.03;;;3.97;;
3523;SDS011;1776;53.330;11.498;2023-07-31T12:45:53;7.53;;;4.67;;
3523;SDS011;1776;53.330;11.498;2023-07-31T12:48:19;6.57;;;4.40;;
3523;SDS011;1776;53.330;11.498;2023-07-31T12:50:44;3.60;;;3.30;;
3523;SDS011;1776;53.330;11.498;2023-07-31T12:53:09;7.47;;;3.90;;
3523;SDS011;1776;53.330;11.498;2023-07-31T12:55:34;6.80;;;4.00;;
3523;SDS011;1776;53.330;11.498;2023-07-31T12:58:01;4.53;;;4.00;;
3523;SDS011;1776;53.330;11.498;2023-07-31T13:00:27;4.33;;;3.83;;
3523;SDS011;1776;53.330;11.498;2023-07-31T13:02:53;4.47;;;3.93;;
3523;SDS011;1776;53.330;11.498;2023-07-31T13:05:18;5.50;;;3.53;;
3523;SDS011;1776;53.330;11.498;2023-07-31T13:07:45;7.33;;;3.60;;
3523;SDS011;1776;53.330;11.498;2023-07-31T13:10:10;3.80;;;3.50;;
3523;SDS011;1776;53.330;11.498;2023-07-31T13:12:36;9.57;;;3.50;;
3523;SDS011;1776;53.330;11.498;2023-07-31T13:15:01;7.80;;;3.60;;
3523;SDS011;1776;53.330;11.498;2023-07-31T13:17:27;3.93;;;3.53;;
3523;SDS011;1776;53.330;11.498;2023-07-31T13:19:52;4.60;;;4.20;;
3523;SDS011;1776;53.330;11.498;2023-07-31T13:22:17;4.70;;;4.10;;
3523;SDS011;1776;53.330;11.498;2023-07-31T13:24:43;5.53;;;4.03;;
3523;SDS011;1776;53.330;11.498;2023-07-31T13:27:08;3.73;;;3.33;;
3523;SDS011;1776;53.330;11.498;2023-07-31T13:29:33;3.87;;;3.00;;
3523;SDS011;1776;53.330;11.498;2023-07-31T13:31:58;6.20;;;3.63;;
3523;SDS011;1776;53.330;11.498;2023-07-31T13:34:24;3.50;;;2.97;;
3523;SDS011;1776;53.330;11.498;2023-07-31T13:36:49;3.50;;;3.20;;
3523;SDS011;1776;53.330;11.498;2023-07-31T13:39:14;5.93;;;3.67;;
3523;SDS011;1776;53.330;11.498;2023-07-31T13:41:39;4.13;;;3.27;;
3523;SDS011;1776;53.330;11.498;2023-07-31T13:44:05;5.23;;;3.60;;
3523;SDS011;1776;53.330;11.498;2023-07-31T13:46:30;3.33;;;3.13;;
3523;SDS011;1776;53.330;11.498;2023-07-31T13:48:57;3.63;;;3.33;;
3523;SDS011;1776;53.330;11.498;2023-07-31T13:51:22;3.60;;;3.30;;
3523;SDS011;1776;53.330;11.498;2023-07-31T13:53:47;3.27;;;2.60;;
3523;SDS011;1776;53.330;11.498;2023-07-31T13:56:13;3.87;;;3.07;;
3523;SDS011;1776;53.330;11.498;2023-07-31T13:58:38;5.60;;;3.13;;
3523;SDS011;1776;53.330;11.498;2023-07-31T14:01:04;3.67;;;2.90;;
3523;SDS011;1776;53.330;11.498;2023-07-31T14:03:29;3.13;;;2.43;;
3523;SDS011;1776;53.330;11.498;2023-07-31T14:05:54;3.37;;;2.20;;
3523;SDS011;1776;53.330;11.498;2023-07-31T14:08:20;3.90;;;2.53;;
3523;SDS011;1776;53.330;11.498;2023-07-31T14:10:46;3.57;;;2.00;;
3523;SDS011;1776;53.330;11.498;2023-07-31T14:13:11;3.00;;;2.60;;
3523;SDS011;1776;53.330;11.498;2023-07-31T14:15:36;2.20;;;1.90;;
3523;SDS011;1776;53.330;11.498;2023-07-31T14:18:02;3.60;;;2.10;;
3523;SDS011;1776;53.330;11.498;2023-07-31T14:20:27;2.97;;;2.33;;
3523;SDS011;1776;53.330;11.498;2023-07-31T14:22:53;2.50;;;2.30;;
3523;SDS011;1776;53.330;11.498;2023-07-31T14:25:18;4.60;;;2.23;;
3523;SDS011;1776;53.330;11.498;2023-07-31T14:27:43;2.33;;;1.90;;
3523;SDS011;1776;53.330;11.498;2023-07-31T14:30:09;3.97;;;1.10;;
3523;SDS011;1776;53.330;11.498;2023-07-31T14:32:34;1.93;;;1.80;;
3523;SDS011;1776;53.330;11.498;2023-07-31T14:34:59;1.67;;;1.57;;
3523;SDS011;1776;53.330;11.498;2023-07-31T14:37:25;1.60;;;1.50;;
3523;SDS011;1776;53.330;11.498;2023-07-31T14:39:52;2.27;;;1.67;;
3523;SDS011;1776;53.330;11.498;2023-07-31T14:42:17;1.40;;;1.30;;
3523;SDS011;1776;53.330;11.498;2023-07-31T14:44:44;1.60;;;1.33;;
3523;SDS011;1776;53.330;11.498;2023-07-31T14:47:09;1.20;;;1.00;;
3523;SDS011;1776;53.330;11.498;2023-07-31T14:49:34;2.60;;;1.67;;
3523;SDS011;1776;53.330;11.498;2023-07-31T14:51:59;1.67;;;1.27;;
3523;SDS011;1776;53.330;11.498;2023-07-31T14:54:25;1.20;;;1.10;;
3523;SDS011;1776;53.330;11.498;2023-07-31T14:56:50;1.00;;;0.90;;
3523;SDS011;1776;53.330;11.498;2023-07-31T14:59:15;2.03;;;1.40;;
3523;SDS011;1776;53.330;11.498;2023-07-31T15:01:40;1.60;;;1.50;;
3523;SDS011;1776;53.330;11.498;2023-07-31T15:04:06;2.20;;;1.00;;
3523;SDS011;1776;53.330;11.498;2023-07-31T15:06:31;1.50;;;0.97;;
3523;SDS011;1776;53.330;11.498;2023-07-31T15:08:56;1.50;;;1.40;;
3523;SDS011;1776;53.330;11.498;2023-07-31T15:11:22;1.00;;;0.90;;
3523;SDS011;1776;53.330;11.498;2023-07-31T15:13:47;4.30;;;1.50;;
3523;SDS011;1776;53.330;11.498;2023-07-31T15:16:12;1.17;;;1.07;;